Time;durP1;ratioP1;P1;durP2;ratioP2;P2;SDS_P1;SDS_P2;PMS_P1;PMS_P2;Temp;Humidity;BMP_temperature;BMP_pressure;BME280_temperature;BME280_humidity;BME280_pressure;Samples;Min_cycle;Max_cycle;Signal;HPM_P1;HPM_P2
2022/11/28 00:02:41;;;;;;;25.48;11.77;;;10.10;59.70;;;;;;6095093;29;20123;-80
2022/11/28 00:05:42;;;;;;;27.83;12.18;;;10.10;59.80;;;;;;6095654;29;20060;-80
2022/11/28 00:08:43;;;;;;;26.63;11.63;;;10.00;59.80;;;;;;6090906;29;20047;-80
2022/11/28 00:11:45;;;;;;;21.33;10.73;;;10.00;60.00;;;;;;6078186;29;20618;-80
2022/11/28 00:14:46;;;;;;;26.30;11.65;;;9.90;60.10;;;;;;6086382;29;20074;-80
2022/11/28 00:17:47;;;;;;;22.20;10.68;;;9.90;60.30;;;;;;6099103;29;20099;-80
2022/11/28 00:20:48;;;;;;;29.20;11.75;;;9.80;60.30;;;;;;6086901;29;20171;-80
2022/11/28 00:23:49;;;;;;;28.40;11.93;;;9.80;60.40;;;;;;6082446;29;20040;-79
2022/11/28 00:26:50;;;;;;;25.00;10.63;;;9.80;60.60;;;;;;6109029;29;20509;-80
2022/11/28 00:29:51;;;;;;;31.80;11.77;;;9.70;60.70;;;;;;6086174;29;20048;-79
2022/11/28 00:32:51;;;;;;;26.70;11.13;;;9.70;60.80;;;;;;6099762;29;20052;-80
2022/11/28 00:36:00;;;;;;;25.58;11.32;;;9.70;60.90;;;;;;6096859;29;20043;-79
2022/11/28 00:39:01;;;;;;;28.58;11.32;;;9.70;60.90;;;;;;6090265;29;20070;-80
2022/11/28 00:42:02;;;;;;;25.95;10.90;;;9.70;60.90;;;;;;6087704;29;20051;-79
2022/11/28 00:45:03;;;;;;;30.75;12.13;;;9.70;60.90;;;;;;6095873;29;20106;-79
2022/11/28 00:48:05;;;;;;;25.10;9.77;;;9.70;60.80;;;;;;6088483;29;20044;-79
2022/11/28 00:51:14;;;;;;;23.08;8.45;;;9.80;60.90;;;;;;6087504;29;20509;-79
2022/11/28 00:54:15;;;;;;;24.75;9.55;;;9.70;60.80;;;;;;6089041;29;20028;-80
2022/11/28 00:57:16;;;;;;;24.38;10.60;;;9.80;60.80;;;;;;6088057;29;20096;-80
2022/11/28 01:00:17;;;;;;;20.27;9.23;;;9.80;60.70;;;;;;6092255;29;20127;-79
2022/11/28 01:03:19;;;;;;;19.23;8.57;;;9.70;60.70;;;;;;6093910;29;20051;-80
2022/11/28 01:06:29;;;;;;;22.70;10.35;;;9.70;60.60;;;;;;6090314;29;20036;-80
2022/11/28 01:09:29;;;;;;;22.35;9.55;;;9.60;60.70;;;;;;6098501;29;20307;-80
2022/11/28 01:12:30;;;;;;;22.48;9.95;;;9.60;60.70;;;;;;6079368;29;20084;-80
2022/11/28 01:15:31;;;;;;;24.73;10.95;;;9.60;60.80;;;;;;6090239;29;20037;-80
2022/11/28 01:18:32;;;;;;;21.25;9.18;;;9.70;60.90;;;;;;6089838;29;20040;-79
2022/11/28 01:21:34;;;;;;;16.33;8.20;;;9.60;60.80;;;;;;6087563;29;20032;-79
2022/11/28 01:24:35;;;;;;;22.88;10.13;;;9.60;60.70;;;;;;6089478;29;20179;-79
2022/11/28 01:27:36;;;;;;;21.17;8.50;;;9.70;60.80;;;;;;6079087;29;20207;-78
2022/11/28 01:30:37;;;;;;;25.35;8.80;;;9.60;60.80;;;;;;6097377;29;20040;-79
2022/11/28 01:33:40;;;;;;;24.77;8.63;;;9.60;60.90;;;;;;6096698;29;20055;-80
2022/11/28 01:36:41;;;;;;;23.55;9.60;;;9.60;61.00;;;;;;6093692;29;20043;-80
2022/11/28 01:39:42;;;;;;;19.40;8.55;;;9.50;61.00;;;;;;6085414;29;20462;-79
2022/11/28 01:42:42;;;;;;;22.63;9.05;;;9.50;61.10;;;;;;6083921;29;20046;-79
2022/11/28 01:45:44;;;;;;;23.55;10.25;;;9.50;61.10;;;;;;6091886;29;20131;-81
2022/11/28 01:48:45;;;;;;;20.77;8.95;;;9.50;61.50;;;;;;6093745;29;20045;-81
2022/11/28 01:51:55;;;;;;;18.77;8.93;;;9.50;61.10;;;;;;6113326;29;20051;-79
2022/11/28 01:55:00;;;;;;;18.40;8.32;;;9.50;61.10;;;;;;6103626;29;20095;-79
2022/11/28 01:58:01;;;;;;;19.38;8.48;;;9.50;61.70;;;;;;6117606;29;20698;-79
2022/11/28 02:01:03;;;;;;;21.83;8.48;;;9.50;60.90;;;;;;6100654;29;20064;-79
2022/11/28 02:04:04;;;;;;;23.50;7.85;;;9.50;60.80;;;;;;6097698;29;20430;-79
2022/11/28 02:07:06;;;;;;;17.15;7.22;;;9.50;60.80;;;;;;6092218;29;20037;-79
2022/11/28 02:10:09;;;;;;;24.27;8.90;;;9.50;60.70;;;;;;6116232;29;20040;-79
2022/11/28 02:13:28;;;;;;;19.88;8.52;;;9.60;60.70;;;;;;6091007;29;20033;-79
2022/11/28 02:17:00;;;;;;;19.98;8.55;;;9.60;60.60;;;;;;6088522;29;20402;-79
2022/11/28 02:20:36;;;;;;;11.43;6.03;;;9.60;60.50;;;;;;6100932;28;20056;-79
2022/11/28 02:23:49;;;;;;;15.25;6.90;;;9.60;60.30;;;;;;6094177;29;20040;-79
2022/11/28 02:27:01;;;;;;;20.52;7.90;;;9.60;60.10;;;;;;6080072;29;20068;-80
2022/11/28 02:30:28;;;;;;;17.00;6.88;;;9.60;60.90;;;;;;6070697;29;20040;-79
2022/11/28 02:33:55;;;;;;;16.52;7.03;;;9.60;60.00;;;;;;6086211;29;20553;-79
2022/11/28 02:37:07;;;;;;;11.48;6.03;;;9.60;59.90;;;;;;6067277;29;20048;-79
2022/11/28 02:40:21;;;;;;;14.85;6.25;;;9.70;59.80;;;;;;6063962;29;20485;-79
2022/11/28 02:43:48;;;;;;;14.48;6.72;;;9.70;59.60;;;;;;6066493;29;20080;-79
2022/11/28 02:47:05;;;;;;;14.18;6.13;;;9.70;59.70;;;;;;6053734;29;20056;-80
2022/11/28 02:50:18;;;;;;;15.23;6.60;;;9.70;59.70;;;;;;6070881;29;20056;-80
2022/11/28 02:53:23;;;;;;;15.70;5.47;;;9.70;59.70;;;;;;6058044;29;20112;-80
2022/11/28 02:56:25;;;;;;;16.23;6.40;;;9.70;59.60;;;;;;6046514;29;20068;-80
2022/11/28 02:59:31;;;;;;;11.55;5.75;;;9.60;59.40;;;;;;6069389;29;20044;-80
2022/11/28 03:02:32;;;;;;;12.50;6.20;;;9.70;59.40;;;;;;6067337;29;20043;-80
2022/11/28 03:06:00;;;;;;;19.02;6.68;;;9.80;59.30;;;;;;6056106;29;20040;-80
2022/11/28 03:09:22;;;;;;;16.33;5.28;;;9.80;59.20;;;;;;6054462;29;20117;-79
2022/11/28 03:12:43;;;;;;;14.98;6.75;;;9.80;59.00;;;;;;6066093;29;20218;-79
2022/11/28 03:15:47;;;;;;;10.50;5.35;;;9.80;58.90;;;;;;6084849;29;20040;-80
2022/11/28 03:19:00;;;;;;;11.73;5.78;;;9.80;59.00;;;;;;6094228;29;20040;-79
2022/11/28 03:22:15;;;;;;;12.25;5.22;;;9.80;59.00;;;;;;6082513;29;20043;-79
2022/11/28 03:25:33;;;;;;;11.80;5.57;;;9.80;58.80;;;;;;6093263;29;20040;-79
2022/11/28 03:28:44;;;;;;;12.30;6.63;;;9.70;58.80;;;;;;6094293;29;20048;-79
2022/11/28 03:31:52;;;;;;;15.63;6.82;;;9.70;58.90;;;;;;6090644;29;20054;-81
2022/11/28 03:35:04;;;;;;;10.38;4.78;;;9.70;58.90;;;;;;6097428;29;20051;-79
2022/11/28 03:38:14;;;;;;;13.57;6.38;;;9.60;58.90;;;;;;6090547;29;20047;-80
2022/11/28 03:41:24;;;;;;;12.98;5.47;;;9.60;58.90;;;;;;6093731;29;20097;-80
2022/11/28 03:44:28;;;;;;;13.63;5.82;;;9.60;59.00;;;;;;6089162;29;20128;-80
2022/11/28 03:47:35;;;;;;;17.35;6.15;;;9.60;59.00;;;;;;6094517;29;20068;-80
2022/11/28 03:50:49;;;;;;;14.82;6.05;;;9.70;59.00;;;;;;6087065;29;20044;-80
2022/11/28 03:53:55;;;;;;;12.82;5.72;;;9.60;59.10;;;;;;6107745;29;20056;-80
2022/11/28 03:57:14;;;;;;;10.82;5.18;;;9.70;59.10;;;;;;6095661;29;20036;-80
2022/11/28 04:00:15;;;;;;;12.15;4.93;;;9.70;59.00;;;;;;6088883;29;20127;-79
2022/11/28 04:03:25;;;;;;;9.70;5.10;;;9.70;58.80;;;;;;6095378;29;20048;-79
2022/11/28 04:06:33;;;;;;;13.68;5.47;;;9.70;58.80;;;;;;6095820;29;20122;-79
2022/11/28 04:09:54;;;;;;;20.00;5.13;;;9.70;58.90;;;;;;6084496;29;20051;-79
2022/11/28 04:12:58;;;;;;;11.43;4.57;;;9.80;58.70;;;;;;6084024;29;20080;-79
2022/11/28 04:16:18;;;;;;;9.38;4.75;;;9.80;58.60;;;;;;6082242;29;20060;-80
2022/11/28 04:19:29;;;;;;;10.80;5.18;;;9.90;58.60;;;;;;6084291;29;20040;-79
2022/11/28 04:22:43;;;;;;;11.90;4.53;;;9.90;58.40;;;;;;6094747;29;20119;-80
2022/11/28 04:25:51;;;;;;;20.75;5.75;;;9.90;59.00;;;;;;6092024;29;20052;-79
2022/11/28 04:28:55;;;;;;;16.35;5.63;;;10.00;58.30;;;;;;6089989;29;20052;-80
2022/11/28 04:31:57;;;;;;;9.80;4.72;;;10.00;58.30;;;;;;6091727;29;20571;-80
2022/11/28 04:35:08;;;;;;;17.30;5.97;;;10.00;58.20;;;;;;6076508;29;20064;-80
2022/11/28 04:38:11;;;;;;;14.32;4.88;;;9.90;58.20;;;;;;6089153;29;20036;-80
2022/11/28 04:41:17;;;;;;;14.45;5.05;;;9.90;58.30;;;;;;6106147;29;20051;-79
2022/11/28 04:44:21;;;;;;;12.13;4.50;;;9.80;58.40;;;;;;6081551;29;20314;-79
2022/11/28 04:47:23;;;;;;;10.18;4.43;;;9.80;58.50;;;;;;6101475;29;20054;-79
2022/11/28 04:50:30;;;;;;;10.50;5.00;;;9.70;58.50;;;;;;6085527;29;20072;-80
2022/11/28 04:53:35;;;;;;;9.60;3.78;;;9.70;58.70;;;;;;6057338;29;20537;-79
2022/11/28 04:56:45;;;;;;;15.48;5.28;;;9.70;58.80;;;;;;6103101;29;20091;-79
2022/11/28 04:59:47;;;;;;;11.98;5.97;;;9.70;58.80;;;;;;6083440;29;20499;-79
2022/11/28 05:02:52;;;;;;;10.82;4.88;;;9.80;58.80;;;;;;6087900;28;20036;-80
2022/11/28 05:05:53;;;;;;;10.02;5.20;;;9.80;58.80;;;;;;6082547;29;20036;-80
2022/11/28 05:08:54;;;;;;;12.70;6.30;;;9.80;58.80;;;;;;6096459;29;20131;-80
2022/11/28 05:11:54;;;;;;;10.75;5.53;;;9.90;58.80;;;;;;6092195;29;20115;-80
2022/11/28 05:14:55;;;;;;;13.27;6.05;;;9.90;58.80;;;;;;6088518;29;20388;-79
2022/11/28 05:17:56;;;;;;;14.57;5.88;;;9.90;58.90;;;;;;6096508;29;20426;-80
2022/11/28 05:20:58;;;;;;;15.00;5.25;;;9.80;58.80;;;;;;6103689;29;20036;-79
2022/11/28 05:23:58;;;;;;;14.38;5.35;;;10.00;58.90;;;;;;6080318;29;20032;-80
2022/11/28 05:26:59;;;;;;;12.98;5.05;;;10.00;58.90;;;;;;6075078;29;20119;-81
2022/11/28 05:30:00;;;;;;;14.40;5.03;;;10.00;58.60;;;;;;6106482;29;20052;-79
2022/11/28 05:33:01;;;;;;;12.90;5.20;;;10.00;58.40;;;;;;6101711;29;20098;-79
2022/11/28 05:36:04;;;;;;;10.45;4.90;;;10.00;58.30;;;;;;6092511;29;20036;-81
2022/11/28 05:39:05;;;;;;;13.32;5.70;;;10.00;58.30;;;;;;6101134;29;20039;-79
2022/11/28 05:42:06;;;;;;;12.38;4.85;;;10.00;58.30;;;;;;6089887;29;20050;-79
2022/11/28 05:45:07;;;;;;;12.65;5.63;;;10.00;58.30;;;;;;6100212;29;20040;-79
2022/11/28 05:48:08;;;;;;;13.75;5.57;;;10.00;58.30;;;;;;6087568;29;20036;-79
2022/11/28 05:51:10;;;;;;;9.40;4.72;;;10.00;58.40;;;;;;6090977;29;20031;-80
2022/11/28 05:54:11;;;;;;;11.63;5.70;;;10.00;58.40;;;;;;6072604;29;20041;-80
2022/11/28 05:57:11;;;;;;;12.85;4.82;;;10.00;58.30;;;;;;6087539;29;20087;-80
2022/11/28 06:00:13;;;;;;;13.65;4.82;;;10.00;58.20;;;;;;6089560;29;20127;-79
2022/11/28 06:03:15;;;;;;;13.50;4.72;;;10.00;58.30;;;;;;6078103;29;20040;-80
2022/11/28 06:06:19;;;;;;;12.23;5.53;;;10.00;58.30;;;;;;6096104;29;20741;-79
2022/11/28 06:09:20;;;;;;;11.40;4.95;;;10.00;58.30;;;;;;6093121;29;20045;-79
2022/11/28 06:12:21;;;;;;;29.27;5.93;;;10.10;58.50;;;;;;6076191;29;20067;-80
2022/11/28 06:15:21;;;;;;;11.65;4.78;;;10.10;58.40;;;;;;6079541;29;20127;-80
2022/11/28 06:18:22;;;;;;;10.75;4.72;;;10.10;58.40;;;;;;6088933;29;20362;-79
2022/11/28 06:21:24;;;;;;;11.65;5.55;;;10.20;58.40;;;;;;6091446;29;20048;-79
2022/11/28 06:24:25;;;;;;;11.68;5.07;;;10.20;58.40;;;;;;6073921;29;20056;-80
2022/11/28 06:27:26;;;;;;;14.45;4.55;;;10.20;58.40;;;;;;6088033;29;20382;-80
2022/11/28 06:30:26;;;;;;;12.57;5.18;;;10.30;58.30;;;;;;6104466;29;20386;-79
2022/11/28 06:33:27;;;;;;;12.07;5.18;;;10.20;58.20;;;;;;6103246;29;20397;-80
2022/11/28 06:36:29;;;;;;;18.33;5.85;;;10.30;58.10;;;;;;6111310;29;20057;-80
2022/11/28 06:39:31;;;;;;;12.45;5.15;;;10.20;58.10;;;;;;6104138;29;20139;-80
2022/11/28 06:42:35;;;;;;;15.00;4.90;;;10.30;58.20;;;;;;6101911;29;20043;-81
2022/11/28 06:45:36;;;;;;;12.02;5.75;;;10.20;58.10;;;;;;6100892;29;20090;-80
2022/11/28 06:48:37;;;;;;;10.52;4.65;;;10.20;58.10;;;;;;6081633;29;20144;-81
2022/11/28 06:51:40;;;;;;;11.73;5.13;;;10.10;58.20;;;;;;6095750;28;21004;-81
2022/11/28 06:54:41;;;;;;;12.10;5.32;;;10.10;58.30;;;;;;6095586;29;20036;-81
2022/11/28 06:57:42;;;;;;;11.90;4.75;;;10.10;58.30;;;;;;6091016;29;20099;-80
2022/11/28 07:00:44;;;;;;;13.55;5.78;;;10.10;58.30;;;;;;6089321;29;20039;-80
2022/11/28 07:03:45;;;;;;;10.00;5.13;;;10.20;58.40;;;;;;6085154;29;20028;-80
2022/11/28 07:06:46;;;;;;;11.55;5.00;;;10.20;58.40;;;;;;6081878;29;20033;-81
2022/11/28 07:09:49;;;;;;;15.50;5.43;;;10.20;58.30;;;;;;6084420;29;20127;-80
2022/11/28 07:13:00;;;;;;;11.85;4.93;;;10.30;58.20;;;;;;6104091;29;20048;-81
2022/11/28 07:16:01;;;;;;;17.55;5.35;;;10.30;58.10;;;;;;6095497;29;20506;-80
2022/11/28 07:19:02;;;;;;;24.52;5.53;;;10.30;58.00;;;;;;6089407;29;20048;-80
2022/11/28 07:22:03;;;;;;;15.35;5.95;;;10.30;58.00;;;;;;6085758;29;20153;-80
2022/11/28 07:25:04;;;;;;;8.60;4.50;;;10.40;58.00;;;;;;6090091;29;20040;-81
2022/11/28 07:28:05;;;;;;;11.60;5.00;;;10.40;57.80;;;;;;6095578;29;20044;-80
2022/11/28 07:31:11;;;;;;;11.27;4.85;;;10.40;57.60;;;;;;6098666;29;20084;-80
2022/11/28 07:34:12;;;;;;;9.30;4.90;;;10.40;57.60;;;;;;6077678;29;20116;-79
2022/11/28 07:37:14;;;;;;;14.43;5.30;;;10.40;57.70;;;;;;6079945;29;20135;-80
2022/11/28 07:40:18;;;;;;;13.77;4.93;;;10.40;57.70;;;;;;6099719;29;20040;-79
2022/11/28 07:43:19;;;;;;;11.23;5.20;;;10.40;57.60;;;;;;6095058;29;20036;-80
2022/11/28 07:46:20;;;;;;;13.38;5.20;;;10.40;57.60;;;;;;6092606;29;20094;-80
2022/11/28 07:49:21;;;;;;;10.90;5.38;;;10.40;57.60;;;;;;6098249;29;20052;-80
2022/11/28 07:52:22;;;;;;;17.52;5.45;;;10.40;57.50;;;;;;6072527;29;20043;-79
2022/11/28 07:55:23;;;;;;;14.50;5.10;;;10.40;57.50;;;;;;6086780;29;20083;-80
2022/11/28 07:58:24;;;;;;;13.20;4.95;;;10.30;57.50;;;;;;6093254;29;20059;-79
2022/11/28 08:01:28;;;;;;;10.27;4.65;;;10.30;57.60;;;;;;6100875;29;20123;-81
2022/11/28 08:04:29;;;;;;;12.15;5.38;;;10.30;57.70;;;;;;6078640;29;20037;-79
2022/11/28 08:07:29;;;;;;;14.57;4.97;;;10.20;57.60;;;;;;6109470;29;20482;-79
2022/11/28 08:10:30;;;;;;;11.27;5.00;;;10.20;57.60;;;;;;6091707;29;20461;-79
2022/11/28 08:13:33;;;;;;;8.23;4.20;;;10.20;57.70;;;;;;6098155;29;20422;-79
2022/11/28 08:16:35;;;;;;;11.05;4.25;;;10.20;57.90;;;;;;6076752;29;20070;-79
2022/11/28 08:19:36;;;;;;;12.02;5.53;;;10.20;57.90;;;;;;6088114;28;20484;-79
2022/11/28 08:22:37;;;;;;;8.98;4.57;;;10.20;58.40;;;;;;6087499;29;20040;-79
2022/11/28 08:25:38;;;;;;;14.02;5.82;;;10.30;57.70;;;;;;6090509;29;20131;-79
2022/11/28 08:28:39;;;;;;;13.68;5.18;;;10.40;57.60;;;;;;6091416;29;20040;-80
2022/11/28 08:31:40;;;;;;;10.68;5.20;;;10.50;57.50;;;;;;6099680;29;20039;-80
2022/11/28 08:34:41;;;;;;;20.48;4.85;;;10.70;57.30;;;;;;6089111;28;20127;-79
2022/11/28 08:37:44;;;;;;;14.30;5.45;;;10.80;57.30;;;;;;6079220;29;20433;-80
2022/11/28 08:40:45;;;;;;;10.82;5.05;;;10.90;57.10;;;;;;6089080;29;20071;-80
2022/11/28 08:43:46;;;;;;;17.70;5.72;;;11.00;56.90;;;;;;6087594;29;20268;-80
2022/11/28 08:46:47;;;;;;;12.57;4.85;;;11.20;56.70;;;;;;6098019;29;20048;-80
2022/11/28 08:49:48;;;;;;;12.32;5.18;;;11.30;56.40;;;;;;6096144;29;20047;-80
2022/11/28 08:52:49;;;;;;;13.15;5.78;;;11.30;56.30;;;;;;6088688;29;20107;-81
2022/11/28 08:55:51;;;;;;;11.63;5.38;;;11.30;56.00;;;;;;6091773;29;20033;-80
2022/11/28 08:58:52;;;;;;;15.52;5.75;;;11.40;55.90;;;;;;6092914;29;20040;-79
2022/11/28 09:01:53;;;;;;;22.05;6.03;;;11.30;55.90;;;;;;6090659;29;20028;-79
2022/11/28 09:04:54;;;;;;;14.30;5.15;;;11.30;55.80;;;;;;6097755;29;20479;-81
2022/11/28 09:07:56;;;;;;;20.17;6.20;;;11.30;55.90;;;;;;6095247;29;20047;-80
2022/11/28 09:10:57;;;;;;;15.80;6.15;;;11.20;56.00;;;;;;6077470;29;20045;-80
2022/11/28 09:13:59;;;;;;;14.30;6.30;;;11.10;56.10;;;;;;6090066;29;20052;-80
2022/11/28 09:17:00;;;;;;;15.77;6.20;;;11.10;56.40;;;;;;6084848;29;20470;-79
2022/11/28 09:20:01;;;;;;;15.00;6.60;;;11.10;56.50;;;;;;6089360;29;20044;-80
2022/11/28 09:23:02;;;;;;;31.13;6.88;;;11.00;56.60;;;;;;6080815;29;20063;-80
2022/11/28 09:26:08;;;;;;;25.10;7.35;;;11.20;56.70;;;;;;6092238;29;20072;-80
2022/11/28 09:29:09;;;;;;;21.67;6.43;;;11.20;56.70;;;;;;6083066;29;20151;-80
2022/11/28 09:32:10;;;;;;;14.27;5.53;;;11.40;56.60;;;;;;6085801;29;20611;-80
2022/11/28 09:35:11;;;;;;;13.05;6.05;;;11.40;56.40;;;;;;6088686;29;20080;-81
2022/11/28 09:38:12;;;;;;;13.95;6.45;;;11.50;56.40;;;;;;6103191;29;20048;-80
2022/11/28 09:41:28;;;;;;;16.30;6.45;;;11.60;56.30;;;;;;6081084;29;20124;-79
2022/11/28 09:44:43;;;;;;;12.93;6.72;;;11.70;56.20;;;;;;6087184;29;20033;-81
2022/11/28 09:48:00;;;;;;;21.05;6.57;;;11.80;55.90;;;;;;6096552;29;20098;-79
2022/11/28 09:51:21;;;;;;;19.52;7.30;;;11.90;55.70;;;;;;6092986;29;20044;-81
2022/11/28 09:54:52;;;;;;;21.20;7.13;;;11.90;55.70;;;;;;6101835;29;20351;-80
2022/11/28 09:57:54;;;;;;;17.00;7.18;;;12.00;55.70;;;;;;6084093;29;20036;-81
2022/11/28 10:01:10;;;;;;;20.27;6.78;;;12.00;55.60;;;;;;6091932;29;20059;-81
2022/11/28 10:04:35;;;;;;;21.65;7.13;;;12.00;55.70;;;;;;6118183;29;20706;-80
2022/11/28 10:07:55;;;;;;;24.48;6.75;;;11.90;55.70;;;;;;6094844;29;20095;-80
2022/11/28 10:11:23;;;;;;;25.52;7.55;;;11.90;55.80;;;;;;6113878;29;20048;-80
2022/11/28 10:14:54;;;;;;;14.43;6.53;;;12.00;55.80;;;;;;6021419;29;20056;-81
2022/11/28 10:18:14;;;;;;;17.52;6.68;;;12.00;55.90;;;;;;6024407;29;20471;-80
2022/11/28 10:21:37;;;;;;;19.08;7.82;;;12.00;55.90;;;;;;6027480;29;20076;-80
2022/11/28 10:24:47;;;;;;;16.25;7.18;;;12.00;55.90;;;;;;6027598;29;20047;-80
2022/11/28 10:27:49;;;;;;;13.95;6.70;;;12.00;55.70;;;;;;6008153;29;20140;-79
2022/11/28 10:31:19;;;;;;;16.55;7.88;;;12.00;55.70;;;;;;6009198;29;20182;-80
2022/11/28 10:34:32;;;;;;;24.92;7.20;;;12.00;55.90;;;;;;6007625;29;20061;-79
2022/11/28 10:37:35;;;;;;;16.92;7.10;;;12.00;56.10;;;;;;6011222;29;20102;-80
2022/11/28 10:40:49;;;;;;;16.88;6.97;;;12.00;56.20;;;;;;6010210;29;20046;-79
2022/11/28 10:44:11;;;;;;;20.02;6.80;;;12.10;56.40;;;;;;6022181;29;20045;-79
2022/11/28 10:47:45;;;;;;;18.77;7.30;;;12.10;56.20;;;;;;6029002;29;20300;-80
2022/11/28 10:51:17;;;;;;;17.30;7.32;;;12.20;56.10;;;;;;6050713;29;20127;-79
2022/11/28 10:55:20;;;;;;;20.20;7.43;;;12.30;56.00;;;;;;6075183;29;20045;-80
2022/11/28 10:58:38;;;;;;;16.60;7.30;;;12.40;55.90;;;;;;5874602;30;20075;-79
2022/11/28 11:01:40;;;;;;;15.43;6.85;;;12.50;55.70;;;;;;5882195;30;20047;-78
2022/11/28 11:04:41;;;;;;;15.25;6.05;;;12.50;55.60;;;;;;5890421;30;20044;-79
2022/11/28 11:07:51;;;;;;;17.23;6.97;;;12.60;55.60;;;;;;5890709;30;20398;-79
2022/11/28 11:11:06;;;;;;;20.95;6.47;;;12.60;55.60;;;;;;5885074;30;20174;-80
2022/11/28 11:14:10;;;;;;;13.85;6.90;;;12.60;55.70;;;;;;5893456;30;20103;-80
2022/11/28 11:17:25;;;;;;;14.68;6.47;;;12.70;55.60;;;;;;5885035;30;20087;-80
2022/11/28 11:20:37;;;;;;;12.02;6.57;;;12.80;55.50;;;;;;5876790;30;20044;-79
2022/11/28 11:23:37;;;;;;;16.38;7.75;;;12.90;55.20;;;;;;5884913;30;20147;-79
2022/11/28 11:26:42;;;;;;;27.27;7.65;;;12.90;54.80;;;;;;5898368;30;20523;-79
2022/11/28 11:29:44;;;;;;;15.43;6.47;;;13.00;54.60;;;;;;6012495;29;20041;-78
2022/11/28 11:32:48;;;;;;;12.43;6.22;;;13.10;54.20;;;;;;6045889;29;20151;-80
2022/11/28 11:35:49;;;;;;;16.27;6.88;;;13.10;54.00;;;;;;6082245;29;20545;-80
2022/11/28 11:38:52;;;;;;;16.85;6.78;;;13.20;53.90;;;;;;6090290;29;20048;-81
2022/11/28 11:41:59;;;;;;;16.25;5.95;;;13.30;53.80;;;;;;6090500;29;20372;-80
2022/11/28 11:45:24;;;;;;;21.30;6.90;;;13.30;53.80;;;;;;6084217;28;20115;-80
2022/11/28 11:48:35;;;;;;;14.23;6.30;;;13.30;53.80;;;;;;6093168;29;20115;-80
2022/11/28 11:51:36;;;;;;;20.92;6.38;;;13.40;53.80;;;;;;6088816;29;20458;-81
2022/11/28 11:54:38;;;;;;;13.93;6.82;;;13.40;53.90;;;;;;6095102;29;20028;-80
2022/11/28 11:57:47;;;;;;;16.58;7.55;;;13.40;53.90;;;;;;6079155;29;20116;-81
2022/11/28 12:00:51;;;;;;;;;;;13.40;54.00;;;;;;6094949;29;20462;-79
2022/11/28 12:04:00;;;;;;;17.65;6.85;;;13.40;54.00;;;;;;6092324;29;19945;-80
2022/11/28 12:07:05;;;;;;;16.38;7.07;;;13.40;54.00;;;;;;6101398;29;20032;-80
2022/11/28 12:10:11;;;;;;;21.75;7.82;;;13.40;54.10;;;;;;6091187;29;20521;-79
2022/11/28 12:13:21;;;;;;;13.02;6.38;;;13.30;54.20;;;;;;6098959;29;20040;-79
2022/11/28 12:16:35;;;;;;;14.70;6.50;;;13.30;54.40;;;;;;6087854;29;20100;-81
2022/11/28 12:19:53;;;;;;;13.40;5.63;;;13.20;54.40;;;;;;6102913;29;20108;-81
2022/11/28 12:23:25;;;;;;;18.70;8.27;;;13.20;54.60;;;;;;6082895;29;20383;-81
2022/11/28 12:26:52;;;;;;;21.27;10.20;;;13.20;54.80;;;;;;6073134;29;20060;-80
2022/11/28 12:30:38;;;;;;;23.52;9.88;;;13.10;55.10;;;;;;6078737;29;20052;-81
2022/11/28 12:33:58;;;;;;;24.35;10.57;;;13.20;55.30;;;;;;6005196;29;20445;-80
2022/11/28 12:37:23;;;;;;;22.38;9.35;;;13.10;55.40;;;;;;6002625;29;20286;-81
2022/11/28 12:40:35;;;;;;;21.88;8.40;;;13.10;55.60;;;;;;6008937;29;20571;-80
2022/11/28 12:43:45;;;;;;;20.48;8.68;;;13.10;55.90;;;;;;6017757;29;20049;-81
2022/11/28 12:47:04;;;;;;;16.90;7.90;;;13.10;56.50;;;;;;6024139;29;20055;-80
2022/11/28 12:50:41;;;;;;;32.35;8.57;;;13.10;56.70;;;;;;6004888;29;20464;-79
2022/11/28 12:53:57;;;;;;;17.98;7.20;;;13.10;56.30;;;;;;5973088;29;20078;-80
2022/11/28 12:57:19;;;;;;;20.63;6.10;;;13.00;56.50;;;;;;5971272;29;20045;-79
2022/11/28 13:00:25;;;;;;;16.60;6.75;;;13.00;56.80;;;;;;5942477;29;20042;-79
2022/11/28 13:03:39;;;;;;;13.88;7.00;;;13.00;57.10;;;;;;5968342;29;20050;-79
2022/11/28 13:06:48;;;;;;;16.92;7.35;;;12.90;57.40;;;;;;5968399;29;20045;-79
2022/11/28 13:10:09;;;;;;;13.80;6.60;;;12.80;57.80;;;;;;5996223;29;20038;-81
2022/11/28 13:13:23;;;;;;;13.73;6.63;;;12.70;58.20;;;;;;5985241;29;20035;-80
2022/11/28 13:16:48;;;;;;;22.55;6.53;;;12.60;58.80;;;;;;6001252;29;20061;-79
2022/11/28 13:20:14;;;;;;;13.38;6.45;;;12.70;59.10;;;;;;6011013;29;20038;-80
2022/11/28 13:23:54;;;;;;;11.15;5.20;;;12.70;59.00;;;;;;6008118;29;20129;-81
2022/11/28 13:27:20;;;;;;;;;;;12.70;59.00;;;;;;5972488;29;20065;-79
2022/11/28 13:30:25;;;;;;;11.48;5.05;;;12.70;58.90;;;;;;5983372;29;20032;-81
2022/11/28 13:33:47;;;;;;;9.77;4.82;;;12.80;58.90;;;;;;6029844;29;20045;-79
2022/11/28 13:36:58;;;;;;;16.35;5.32;;;12.70;59.30;;;;;;6028028;29;20060;-79
2022/11/28 13:40:12;;;;;;;15.68;5.22;;;12.70;59.50;;;;;;6027111;29;20085;-80
2022/11/28 13:43:22;;;;;;;11.85;5.80;;;12.80;59.70;;;;;;6005475;29;20037;-80
2022/11/28 13:46:23;;;;;;;11.90;5.53;;;12.80;59.80;;;;;;6011647;29;20046;-81
2022/11/28 13:49:26;;;;;;;17.50;6.45;;;12.90;59.80;;;;;;6011211;29;20080;-80
2022/11/28 13:52:28;;;;;;;14.75;6.40;;;13.00;59.80;;;;;;6005597;29;20045;-80
2022/11/28 13:55:39;;;;;;;15.82;7.38;;;13.00;59.70;;;;;;6029363;29;20056;-80
2022/11/28 13:58:55;;;;;;;17.65;6.65;;;13.00;59.40;;;;;;6029201;29;20048;-80
2022/11/28 14:02:02;;;;;;;16.13;6.93;;;12.90;59.40;;;;;;6028474;29;20052;-78
2022/11/28 14:05:14;;;;;;;30.90;7.88;;;12.90;59.50;;;;;;6014999;29;20057;-79
2022/11/28 14:08:43;;;;;;;17.40;8.13;;;12.90;59.50;;;;;;6083317;29;20115;-79
2022/11/28 14:12:12;;;;;;;26.77;7.78;;;12.90;59.60;;;;;;6070563;29;20107;-80
2022/11/28 14:15:40;;;;;;;19.52;7.45;;;12.80;59.60;;;;;;6090264;29;20043;-80
2022/11/28 14:19:18;;;;;;;21.90;7.40;;;12.70;59.70;;;;;;6083632;29;20151;-80
2022/11/28 14:22:38;;;;;;;13.73;7.60;;;12.70;59.80;;;;;;6086482;29;20152;-80
2022/11/28 14:25:43;;;;;;;17.35;7.40;;;12.60;59.90;;;;;;6099691;29;20044;-79
2022/11/28 14:28:44;;;;;;;16.75;7.35;;;12.60;60.00;;;;;;6076244;29;20028;-79
2022/11/28 14:31:46;;;;;;;24.52;8.20;;;12.60;59.90;;;;;;6102825;29;20034;-80
2022/11/28 14:34:48;;;;;;;15.63;6.70;;;12.60;59.90;;;;;;6087355;29;20032;-79
2022/11/28 14:37:54;;;;;;;12.15;6.05;;;12.50;60.00;;;;;;6078513;29;20123;-80
2022/11/28 14:41:07;;;;;;;13.77;6.43;;;12.50;60.20;;;;;;6090966;29;20083;-80
2022/11/28 14:44:42;;;;;;;19.85;7.15;;;12.50;60.60;;;;;;6091177;29;20052;-80
2022/11/28 14:48:14;;;;;;;20.55;7.22;;;12.40;61.10;;;;;;6089544;29;20434;-79
2022/11/28 14:51:16;;;;;;;24.75;7.57;;;12.40;61.70;;;;;;6087446;29;20049;-79
2022/11/28 14:54:41;;;;;;;16.95;7.43;;;12.30;62.00;;;;;;6097988;29;20037;-81
2022/11/28 14:57:56;;;;;;;20.58;7.93;;;12.30;62.60;;;;;;6092232;29;20036;-80
2022/11/28 15:00:58;;;;;;;22.65;6.85;;;12.20;62.90;;;;;;6082691;29;20036;-80
2022/11/28 15:04:23;;;;;;;12.00;6.00;;;12.20;63.20;;;;;;6071383;29;20049;-80
2022/11/28 15:07:32;;;;;;;16.77;6.55;;;12.20;63.60;;;;;;6090742;29;20048;-79
2022/11/28 15:10:42;;;;;;;13.23;5.75;;;12.10;63.90;;;;;;6098875;29;20043;-80
2022/11/28 15:14:09;;;;;;;16.33;6.03;;;12.10;64.20;;;;;;6090790;29;20500;-79
2022/11/28 15:17:13;;;;;;;15.38;6.63;;;12.10;64.90;;;;;;6085558;29;20040;-80
2022/11/28 15:20:27;;;;;;;11.88;5.40;;;12.00;65.50;;;;;;6097033;29;20077;-81
2022/11/28 15:23:34;;;;;;;9.70;4.70;;;12.00;65.80;;;;;;6087257;29;20036;-80
2022/11/28 15:26:36;;;;;;;13.07;5.75;;;12.00;66.10;;;;;;6086189;29;20040;-80
2022/11/28 15:29:38;;;;;;;11.82;5.95;;;12.00;66.20;;;;;;6084467;29;20043;-81
2022/11/28 15:32:41;;;;;;;12.63;5.68;;;12.00;66.40;;;;;;6068515;29;20055;-80
2022/11/28 15:35:55;;;;;;;15.30;7.18;;;12.00;66.80;;;;;;6087591;29;20040;-80
2022/11/28 15:38:57;;;;;;;13.60;6.93;;;12.00;67.00;;;;;;6085937;29;20059;-81
2022/11/28 15:42:00;;;;;;;22.08;8.32;;;12.00;67.90;;;;;;6092222;29;20127;-80
2022/11/28 15:45:09;;;;;;;14.65;6.95;;;12.00;67.20;;;;;;6096638;29;20095;-80
2022/11/28 15:48:32;;;;;;;18.23;7.78;;;12.10;67.20;;;;;;6093979;29;20123;-78
2022/11/28 15:51:34;;;;;;;18.73;8.10;;;12.10;67.30;;;;;;6085908;29;20139;-80
2022/11/28 15:54:39;;;;;;;11.50;5.38;;;12.10;67.20;;;;;;6102361;29;20036;-80
2022/11/28 15:57:41;;;;;;;14.75;6.28;;;12.20;67.10;;;;;;6091363;29;20075;-79
2022/11/28 16:00:46;;;;;;;16.85;6.53;;;12.10;66.90;;;;;;6091814;29;20192;-81
2022/11/28 16:04:06;;;;;;;15.13;6.50;;;12.10;66.70;;;;;;6069866;29;20043;-79
2022/11/28 16:07:13;;;;;;;13.55;6.35;;;12.10;66.50;;;;;;6084987;29;20041;-80
2022/11/28 16:10:20;;;;;;;14.30;6.23;;;12.10;66.30;;;;;;6087470;29;20131;-79
2022/11/28 16:13:25;;;;;;;11.90;6.53;;;12.10;66.20;;;;;;6092443;29;20047;-80